2022年5月18日

时间 代码 天气 温度 能见度 乌云 METAR/SPECI
05:50
V
15 °C 10 km+ - 130°   130° 6 kt METAR EDWE 180350Z AUTO 13006KT 9999 // NCD 15/13 Q1019
05:20
V
16 °C 10 km+ 16.000 ft 140°   140° 6 kt METAR EDWE 180320Z AUTO 14006KT 9999 // BKN160/// 16/14 Q1019
04:50
V
16 °C 10 km+ 16.000 ft 130°   130° 6 kt METAR EDWE 180250Z AUTO 13006KT 9999 // OVC160/// 16/14 Q1019
04:20
V
16 °C 9 km 17.000 ft 120°   120° 4 kt METAR EDWE 180220Z AUTO 12004KT 090V150 9000 // BKN170/// 16/14 Q1019
03:50
V
16 °C 8 km 17.000 ft 120°   120° 4 kt METAR EDWE 180150Z AUTO 12004KT 090V160 8000 // FEW062/// BKN170/// 16/14 Q1020
03:20
V
16 °C 9 km - 130°   130° 5 kt METAR EDWE 180120Z AUTO 13005KT 9000 // SCT170/// 16/14 Q1019
02:50
V
16 °C 9 km 20.000 ft 110°   110° 4 kt METAR EDWE 180050Z AUTO 11004KT 9000 // FEW140/// SCT170/// BKN200/// 16/14 Q1019
02:20
V
16 °C 10 km+ 21.000 ft 120°   120° 4 kt METAR EDWE 180020Z AUTO 12004KT 080V150 9999 // FEW063/// BKN210/// 16/15 Q1020
01:50
V
17 °C 10 km+ 20.000 ft 110°   110° 7 kt METAR EDWE 172350Z AUTO 11007KT 9999 // FEW064/// BKN200/// 17/15 Q1020
01:20
V
17 °C 10 km+ 5.900 ft 110°   110° 8 kt METAR EDWE 172320Z AUTO 11008KT 9999 // BKN059/// BKN140/// 17/15 Q1020
00:50
V
18 °C 10 km+ 5.800 ft 110°   110° 8 kt METAR EDWE 172250Z AUTO 11008KT 9999 // BKN058/// 18/15 Q1020
00:20
V
18 °C 10 km+ 5.800 ft 110°   110° 8 kt METAR EDWE 172220Z AUTO 11008KT 9999 // BKN058/// BKN180/// 18/15 Q1020

2022年5月17日

时间 代码 天气 温度 能见度 乌云 METAR/SPECI
23:50
V
17 °C 10 km+ 18.000 ft 110°   110° 7 kt METAR EDWE 172150Z AUTO 11007KT 9999 // BKN180/// 17/15 Q1020
23:20
V
16 °C 10 km+ 18.000 ft 100°   100° 6 kt METAR EDWE 172120Z AUTO 10006KT 9999 // BKN180/// BKN230/// 16/15 Q1020
22:50
V
16 °C 10 km+ 18.000 ft 100°   100° 5 kt METAR EDWE 172050Z AUTO 10005KT 9999 // BKN180/// 16/14 Q1020
22:20
V
16 °C 10 km+ - 090°   090° 5 kt METAR EDWE 172020Z AUTO 09005KT 9999 // ///////// 16/14 Q1020
21:50
V
17 °C 10 km+ - 080°   080° 4 kt METAR EDWE 171950Z AUTO 08004KT 9999 // ///////// 17/15 Q1020
21:20
V
17 °C 10 km+ - 080°   080° 5 kt METAR EDWE 171920Z AUTO 08005KT 9999 // ///////// 17/15 Q1020
20:50
V
18 °C 10 km+ - 070°   070° 5 kt METAR EDWE 171850Z AUTO 07005KT 9999 // ///////// 18/16 Q1020
06:20
M
12 °C 7 km - 050°   050° 2 kt METAR EDWE 170420Z AUTO 05002KT 7000 // NCD 12/11 Q1019
05:50
V
12 °C 10 km+ - Var   Var 1 kt METAR EDWE 170350Z AUTO VRB01KT 9999 // SCT046/// 12/11 Q1018
05:20
V
13 °C 10 km+ - 250°   250° 3 kt METAR EDWE 170320Z AUTO 25003KT 9999 // SCT045/// 13/12 Q1018
04:50
V
13 °C 10 km+ - 250°   250° 5 kt METAR EDWE 170250Z AUTO 25005KT 9999 // SCT044/// 13/12 Q1018
04:20
V
14 °C 10 km+ - 240°   240° 7 kt METAR EDWE 170220Z AUTO 24007KT 9999 // FEW045/// 14/12 Q1018
03:50
V
14 °C 10 km+ - 230°   230° 6 kt METAR EDWE 170150Z AUTO 23006KT 9999 // NCD 14/13 Q1018
03:20
V
15 °C 10 km+ - 230°   230° 4 kt METAR EDWE 170120Z AUTO 23004KT 9999 // NCD 15/13 Q1018
02:50
V
15 °C 10 km+ 3.300 ft 240°   240° 5 kt METAR EDWE 170050Z AUTO 24005KT 9999 // BKN033/// 15/13 Q1018
02:20
V
15 °C 10 km+ 3.500 ft 240°   240° 3 kt METAR EDWE 170020Z AUTO 24003KT 9999 // BKN035/// 15/14 Q1018
01:50
V
15 °C 10 km+ 5.000 ft 260°   260° 4 kt METAR EDWE 162350Z AUTO 26004KT 9999 // SCT032/// BKN050/// BKN066/// 15/14 Q1018
01:20
M
15 °C 10 km+ 2.600 ft 270°   270° 3 kt METAR EDWE 162320Z AUTO 27003KT 9999 // SCT021/// BKN026/// 15/14 Q1018
00:50
M
16 °C 10 km+ 2.200 ft 260°   260° 4 kt METAR EDWE 162250Z AUTO 26004KT 9999 // OVC022/// 16/14 Q1018
00:20
M
16 °C 10 km+ 2.400 ft 250°   250° 5 kt METAR EDWE 162220Z AUTO 25005KT 9999 // OVC024/// 16/14 Q1018

2022年5月16日

时间 代码 天气 温度 能见度 乌云 METAR/SPECI
23:50
M
16 °C 8 km 2.300 ft 250°   250° 4 kt METAR EDWE 162150Z AUTO 25004KT 8000 // BKN023/// OVC029/// 16/15 Q1018
23:20
M
16 °C 8 km 2.800 ft 220°   220° 5 kt METAR EDWE 162120Z AUTO 22005KT 8000 // FEW019/// BKN028/// 16/15 Q1017
22:50
M
16 °C 6 km 1.900 ft 190°   190° 4 kt METAR EDWE 162050Z AUTO 19004KT 160V240 6000 // BKN019/// OVC029/// 16/15 Q1017
22:20
M
16 °C 6 km 1.900 ft 190°   190° 3 kt METAR EDWE 162020Z AUTO 19003KT 150V220 6000 // BKN019/// OVC067/// 16/15 Q1017
21:50
M
16 °C 5 km 5.600 ft 220°   220° 5 kt METAR EDWE 161950Z AUTO 22005KT 190V250 5000 // FEW033/// OVC056/// 16/15 Q1017
21:20
I
16 °C 4,6 km 4.200 ft 240°   240° 7 kt METAR EDWE 161920Z AUTO 24007KT 4600 // FEW014/// SCT021/// OVC042/// 16/15 Q1017
20:50
M
17 °C 10 km+ 1.800 ft 240°   240° 9 kt METAR EDWE 161850Z AUTO 24009KT 9999 // FEW016/// OVC018/// 17/15 Q1016
较旧的数据

下载我们的应用程序

在您的手机和平板电脑上轻松访问所有航空天气。
有许多网站上没有的功能,如离线支持和个人机场列表。

Studio Eveline

Benalmádena
España